North Port, Florida
Current Conditions -  °F | °C
As of 8:15 PM on Tuesday 27 Jan 2015 (Local Time) from KVNC Reporting Station
Broken Clouds Broken Clouds  
Wind Chill: 64°   Ceiling: 3700
Heat Index: 64°   Visibility: 10mi
Dew Point: 57°   Wind: 12mph
Humidity: 77%   Direction: 290°WNW
Pressure: 30.03"   Gusts: NA
Location:  27.05°N, 82.23°W
Report Text: KVNC 280115Z AUTO 29010KT 10SM BKN037 18/14 A3003 RMK AO2 TSNO
Loading
Personal Weather Stations






























Interactive Weather Map New forecast layout! Learn more

10-Day Weather Forecast

Advertisements
Track Severe Weather on mobile